DAL728 KSLC-CYWG
Flight info
| Callsign | DAL728 |
|---|---|
| Flight time | 2h 7m |
| Altitude | 37000 |
| Route | RUGGD3 HOLTR DCT COD DCT MLS DCT MOT DCT DUVLA BEFAN5 |
| Aircraft | A320/M-SDE3FGHIRWY/LB1 |
Departure
| Time | 2026-05-08 14:43 |
|---|---|
| Airport | Salt Lake City International Airport (KSLC) |
Arrival
| Time | 2026-05-08 16:51 |
|---|---|
| Airport | Winnipeg / James Armstrong Richardson International Airport (CYWG) |
| Time | Latitude | Longitude | Altitude | Speed | Heading |
|---|---|---|---|---|---|
| 2026-05-08 14:26 | 40.78852 | -111.98373 | 4231 ft | 0 kts | 355° |
| 2026-05-08 14:29 | 40.78850 | -111.98373 | 4231 ft | 2 kts | 355° |
| 2026-05-08 14:30 | 40.78834 | -111.98371 | 4230 ft | 2 kts | 354° |
| 2026-05-08 14:30 | 40.78817 | -111.98369 | 4230 ft | 2 kts | 354° |
| 2026-05-08 14:30 | 40.78801 | -111.98367 | 4231 ft | 2 kts | 355° |
| 2026-05-08 14:30 | 40.78784 | -111.98366 | 4232 ft | 2 kts | 63° |
| 2026-05-08 14:31 | 40.78781 | -111.98387 | 4231 ft | 2 kts | 84° |
| 2026-05-08 14:31 | 40.78780 | -111.98402 | 4232 ft | 0 kts | 85° |
| 2026-05-08 14:31 | 40.78780 | -111.98399 | 4232 ft | 1 kts | 85° |
| 2026-05-08 14:32 | 40.78780 | -111.98398 | 4232 ft | 0 kts | 85° |
| 2026-05-08 14:34 | 40.78780 | -111.98397 | 4232 ft | 1 kts | 85° |
| 2026-05-08 14:34 | 40.78783 | -111.98346 | 4231 ft | 10 kts | 84° |
| 2026-05-08 14:34 | 40.78792 | -111.98218 | 4230 ft | 18 kts | 85° |
| 2026-05-08 14:35 | 40.78804 | -111.98049 | 4232 ft | 18 kts | 85° |
| 2026-05-08 14:35 | 40.78817 | -111.97887 | 4234 ft | 18 kts | 79° |
| 2026-05-08 14:35 | 40.78833 | -111.97727 | 4233 ft | 13 kts | 72° |
| 2026-05-08 14:35 | 40.78912 | -111.97699 | 4234 ft | 13 kts | 355° |
| 2026-05-08 14:36 | 40.79026 | -111.97712 | 4235 ft | 20 kts | 355° |
| 2026-05-08 14:36 | 40.79175 | -111.97730 | 4230 ft | 23 kts | 355° |
| 2026-05-08 14:36 | 40.79340 | -111.97748 | 4229 ft | 24 kts | 355° |
| 2026-05-08 14:36 | 40.79514 | -111.97768 | 4227 ft | 26 kts | 355° |
| 2026-05-08 14:37 | 40.79689 | -111.97789 | 4227 ft | 20 kts | 354° |
| 2026-05-08 14:37 | 40.79823 | -111.97804 | 4229 ft | 19 kts | 355° |
| 2026-05-08 14:37 | 40.79941 | -111.97817 | 4232 ft | 15 kts | 354° |
| 2026-05-08 14:37 | 40.80029 | -111.97828 | 4234 ft | 11 kts | 354° |
| 2026-05-08 14:38 | 40.80124 | -111.97840 | 4235 ft | 17 kts | 355° |
| 2026-05-08 14:38 | 40.80233 | -111.97852 | 4237 ft | 14 kts | 355° |
| 2026-05-08 14:38 | 40.80323 | -111.97862 | 4237 ft | 14 kts | 355° |
| 2026-05-08 14:38 | 40.80451 | -111.97878 | 4235 ft | 23 kts | 354° |
| 2026-05-08 14:39 | 40.80594 | -111.97895 | 4233 ft | 20 kts | 355° |
| 2026-05-08 14:39 | 40.80707 | -111.97898 | 4232 ft | 14 kts | 17° |
| 2026-05-08 14:39 | 40.80739 | -111.97864 | 4230 ft | 0 kts | 60° |
| 2026-05-08 14:40 | 40.80742 | -111.97853 | 4230 ft | 5 kts | 70° |
| 2026-05-08 14:41 | 40.80743 | -111.97773 | 4229 ft | 13 kts | 104° |
| 2026-05-08 14:41 | 40.80703 | -111.97689 | 4229 ft | 10 kts | 160° |
| 2026-05-08 14:41 | 40.80677 | -111.97685 | 4229 ft | 0 kts | 175° |
| 2026-05-08 14:42 | 40.80627 | -111.97680 | 4231 ft | 29 kts | 175° |
| 2026-05-08 14:42 | 40.80191 | -111.97629 | 4236 ft | 95 kts | 175° |
| 2026-05-08 14:43 | 40.79336 | -111.97530 | 4228 ft | 150 kts | 175° |
| 2026-05-08 14:43 | 40.78179 | -111.97393 | 4518 ft | 169 kts | 174° |
| 2026-05-08 14:43 | 40.77010 | -111.97246 | 5237 ft | 169 kts | 175° |
| 2026-05-08 14:43 | 40.75835 | -111.97100 | 5931 ft | 170 kts | 175° |
| 2026-05-08 14:44 | 40.74624 | -111.96892 | 6299 ft | 185 kts | 161° |
| 2026-05-08 14:44 | 40.73544 | -111.95847 | 6492 ft | 209 kts | 124° |
| 2026-05-08 14:44 | 40.72874 | -111.94025 | 6696 ft | 234 kts | 109° |
| 2026-05-08 14:44 | 40.72735 | -111.91796 | 6926 ft | 259 kts | 84° |
| 2026-05-08 14:45 | 40.73315 | -111.89457 | 7216 ft | 280 kts | 56° |
| 2026-05-08 14:45 | 40.74714 | -111.87664 | 7824 ft | 285 kts | 26° |
| 2026-05-08 14:45 | 40.76582 | -111.86881 | 8578 ft | 283 kts | 5° |
| 2026-05-08 14:45 | 40.78546 | -111.86561 | 9443 ft | 285 kts | 7° |
| 2026-05-08 14:46 | 40.80481 | -111.86058 | 10243 ft | 290 kts | 9° |
| 2026-05-08 14:46 | 40.82529 | -111.85444 | 10485 ft | 313 kts | 10° |
| 2026-05-08 14:46 | 40.84729 | -111.84769 | 10674 ft | 337 kts | 10° |
| 2026-05-08 14:46 | 40.87091 | -111.84063 | 10881 ft | 357 kts | 10° |
| 2026-05-08 14:47 | 40.89547 | -111.83352 | 11456 ft | 364 kts | 9° |
| 2026-05-08 14:47 | 40.92037 | -111.82651 | 12146 ft | 368 kts | 8° |
| 2026-05-08 14:47 | 40.94555 | -111.81954 | 12846 ft | 371 kts | 8° |
| 2026-05-08 14:47 | 40.97096 | -111.81256 | 13570 ft | 374 kts | 7° |
| 2026-05-08 14:48 | 40.99655 | -111.80554 | 14216 ft | 378 kts | 7° |
| 2026-05-08 14:48 | 41.02237 | -111.79851 | 14788 ft | 380 kts | 7° |
| 2026-05-08 14:48 | 41.04838 | -111.79145 | 15371 ft | 383 kts | 7° |
| 2026-05-08 14:48 | 41.07453 | -111.78435 | 15967 ft | 385 kts | 7° |
| 2026-05-08 14:49 | 41.10090 | -111.77717 | 16531 ft | 389 kts | 8° |
| 2026-05-08 14:49 | 41.12748 | -111.76993 | 17135 ft | 392 kts | 8° |
| 2026-05-08 14:49 | 41.15431 | -111.76277 | 17711 ft | 395 kts | 7° |
| 2026-05-08 14:49 | 41.18143 | -111.75610 | 18293 ft | 398 kts | 7° |
| 2026-05-08 14:50 | 41.20844 | -111.74982 | 18784 ft | 401 kts | 7° |
| 2026-05-08 14:50 | 41.23598 | -111.74356 | 19264 ft | 404 kts | 7° |
| 2026-05-08 14:50 | 41.26379 | -111.73721 | 19737 ft | 406 kts | 7° |
| 2026-05-08 14:50 | 41.29174 | -111.73075 | 20206 ft | 409 kts | 7° |
| 2026-05-08 14:51 | 41.31996 | -111.72414 | 20670 ft | 412 kts | 7° |
| 2026-05-08 14:51 | 41.34828 | -111.71745 | 21067 ft | 415 kts | 7° |
| 2026-05-08 14:51 | 41.37679 | -111.71066 | 21468 ft | 418 kts | 7° |
| 2026-05-08 14:51 | 41.40513 | -111.70154 | 21870 ft | 422 kts | 13° |
| 2026-05-08 14:52 | 41.43336 | -111.69038 | 22279 ft | 424 kts | 13° |
| 2026-05-08 14:52 | 41.49037 | -111.66804 | 23107 ft | 429 kts | 13° |
| 2026-05-08 14:52 | 41.51911 | -111.65679 | 23495 ft | 432 kts | 13° |
| 2026-05-08 14:53 | 41.54798 | -111.64550 | 23848 ft | 433 kts | 12° |
| 2026-05-08 14:53 | 41.57695 | -111.63415 | 24194 ft | 435 kts | 12° |
| 2026-05-08 14:53 | 41.60605 | -111.62273 | 24556 ft | 436 kts | 12° |
| 2026-05-08 14:53 | 41.63523 | -111.61125 | 24891 ft | 438 kts | 12° |
| 2026-05-08 14:54 | 41.66447 | -111.59971 | 25225 ft | 439 kts | 12° |
| 2026-05-08 14:54 | 41.69378 | -111.58811 | 25533 ft | 440 kts | 13° |
| 2026-05-08 14:54 | 41.72320 | -111.57644 | 25831 ft | 441 kts | 13° |
| 2026-05-08 14:54 | 41.75271 | -111.56476 | 26121 ft | 443 kts | 12° |
| 2026-05-08 14:55 | 41.78230 | -111.55309 | 26366 ft | 443 kts | 12° |
| 2026-05-08 14:55 | 41.81234 | -111.54399 | 26643 ft | 441 kts | 6° |
| 2026-05-08 14:55 | 41.84262 | -111.53728 | 26927 ft | 442 kts | 6° |
| 2026-05-08 14:55 | 41.87259 | -111.53057 | 27190 ft | 443 kts | 6° |
| 2026-05-08 14:56 | 41.90305 | -111.52371 | 27439 ft | 445 kts | 6° |
| 2026-05-08 14:56 | 41.93359 | -111.51681 | 27683 ft | 446 kts | 6° |
| 2026-05-08 14:56 | 41.96414 | -111.50984 | 28022 ft | 444 kts | 6° |
| 2026-05-08 14:56 | 41.99456 | -111.50288 | 28356 ft | 443 kts | 6° |
| 2026-05-08 14:57 | 42.02489 | -111.49596 | 28706 ft | 441 kts | 6° |
| 2026-05-08 14:57 | 42.05511 | -111.48907 | 29042 ft | 440 kts | 6° |
| 2026-05-08 14:57 | 42.08525 | -111.48223 | 29388 ft | 438 kts | 6° |
| 2026-05-08 14:57 | 42.11531 | -111.47542 | 29751 ft | 437 kts | 6° |
| 2026-05-08 14:58 | 42.14523 | -111.46863 | 30099 ft | 436 kts | 6° |
| 2026-05-08 14:58 | 42.17505 | -111.46186 | 30411 ft | 434 kts | 6° |
| 2026-05-08 14:58 | 42.20481 | -111.45508 | 30718 ft | 433 kts | 6° |
| 2026-05-08 14:58 | 42.23449 | -111.44829 | 31021 ft | 431 kts | 6° |
| 2026-05-08 14:59 | 42.26399 | -111.44131 | 31320 ft | 431 kts | 8° |
| 2026-05-08 14:59 | 42.32019 | -111.41146 | 31904 ft | 441 kts | 26° |
| 2026-05-08 14:59 | 42.34537 | -111.38748 | 32198 ft | 444 kts | 32° |
| 2026-05-08 15:00 | 42.36997 | -111.36239 | 32485 ft | 443 kts | 32° |
| 2026-05-08 15:00 | 42.39451 | -111.33738 | 32789 ft | 442 kts | 32° |
| 2026-05-08 15:00 | 42.41906 | -111.31238 | 33088 ft | 440 kts | 31° |
| 2026-05-08 15:00 | 42.44356 | -111.28752 | 33392 ft | 439 kts | 31° |
| 2026-05-08 15:01 | 42.46797 | -111.26276 | 33699 ft | 438 kts | 31° |
| 2026-05-08 15:01 | 42.49232 | -111.23800 | 34020 ft | 437 kts | 31° |
| 2026-05-08 15:01 | 42.51661 | -111.21318 | 34272 ft | 437 kts | 31° |
| 2026-05-08 15:01 | 42.54081 | -111.18833 | 34540 ft | 436 kts | 31° |
| 2026-05-08 15:02 | 42.56495 | -111.16351 | 34795 ft | 435 kts | 31° |
| 2026-05-08 15:02 | 42.58905 | -111.13876 | 35058 ft | 434 kts | 31° |
| 2026-05-08 15:02 | 42.61314 | -111.11412 | 35310 ft | 433 kts | 31° |
| 2026-05-08 15:02 | 42.63723 | -111.08952 | 35561 ft | 432 kts | 31° |
| 2026-05-08 15:03 | 42.66121 | -111.06500 | 35781 ft | 431 kts | 31° |
| 2026-05-08 15:03 | 42.68511 | -111.04048 | 35999 ft | 430 kts | 31° |
| 2026-05-08 15:03 | 42.70896 | -111.01592 | 36185 ft | 430 kts | 31° |
| 2026-05-08 15:03 | 42.73278 | -110.99137 | 36382 ft | 429 kts | 31° |
| 2026-05-08 15:04 | 42.75621 | -110.96716 | 36573 ft | 429 kts | 31° |
| 2026-05-08 15:04 | 42.77997 | -110.94262 | 36759 ft | 428 kts | 31° |
| 2026-05-08 15:04 | 42.80368 | -110.91813 | 36945 ft | 428 kts | 31° |
| 2026-05-08 15:04 | 42.82739 | -110.89359 | 37106 ft | 428 kts | 31° |
| 2026-05-08 15:05 | 42.87498 | -110.84434 | 37127 ft | 431 kts | 31° |
| 2026-05-08 15:05 | 42.91501 | -110.80283 | 37103 ft | 432 kts | 31° |
| 2026-05-08 15:06 | 42.96249 | -110.75349 | 37077 ft | 431 kts | 31° |
| 2026-05-08 15:06 | 43.01836 | -110.69528 | 37076 ft | 432 kts | 31° |
| 2026-05-08 15:07 | 43.05806 | -110.65382 | 37076 ft | 431 kts | 31° |
| 2026-05-08 15:07 | 43.10571 | -110.60390 | 37084 ft | 431 kts | 31° |
| 2026-05-08 15:08 | 43.15337 | -110.55392 | 37086 ft | 432 kts | 31° |
| 2026-05-08 15:08 | 43.20108 | -110.50384 | 37109 ft | 432 kts | 31° |
| 2026-05-08 15:09 | 43.24878 | -110.45371 | 37110 ft | 432 kts | 31° |
| 2026-05-08 15:09 | 43.29647 | -110.40341 | 37099 ft | 432 kts | 31° |
| 2026-05-08 15:10 | 43.34416 | -110.35298 | 37110 ft | 433 kts | 32° |
| 2026-05-08 15:10 | 43.39186 | -110.30240 | 37093 ft | 433 kts | 31° |
| 2026-05-08 15:11 | 43.43953 | -110.25191 | 37129 ft | 432 kts | 31° |
| 2026-05-08 15:11 | 43.48683 | -110.20172 | 37114 ft | 432 kts | 31° |
| 2026-05-08 15:12 | 43.53442 | -110.15104 | 37121 ft | 432 kts | 31° |
| 2026-05-08 15:12 | 43.58199 | -110.10026 | 37130 ft | 432 kts | 31° |
| 2026-05-08 15:13 | 43.62954 | -110.04937 | 37146 ft | 432 kts | 31° |
| 2026-05-08 15:13 | 43.67701 | -109.99844 | 37129 ft | 432 kts | 31° |
| 2026-05-08 15:14 | 43.72441 | -109.94744 | 37125 ft | 432 kts | 31° |
| 2026-05-08 15:14 | 43.77184 | -109.89641 | 37121 ft | 432 kts | 31° |
| 2026-05-08 15:15 | 43.81924 | -109.84541 | 37123 ft | 432 kts | 31° |
| 2026-05-08 15:15 | 43.86664 | -109.79429 | 37141 ft | 431 kts | 31° |
| 2026-05-08 15:16 | 43.91389 | -109.74309 | 37135 ft | 431 kts | 31° |
| 2026-05-08 15:16 | 43.96115 | -109.69180 | 37130 ft | 431 kts | 31° |
| 2026-05-08 15:17 | 44.00842 | -109.64040 | 37128 ft | 431 kts | 31° |
| 2026-05-08 15:17 | 44.05552 | -109.58903 | 37133 ft | 429 kts | 31° |
| 2026-05-08 15:18 | 44.10225 | -109.53792 | 37151 ft | 430 kts | 31° |
| 2026-05-08 15:18 | 44.14927 | -109.48646 | 37122 ft | 429 kts | 31° |
| 2026-05-08 15:19 | 44.19620 | -109.43505 | 37132 ft | 430 kts | 31° |
| 2026-05-08 15:19 | 44.24314 | -109.38358 | 37106 ft | 429 kts | 31° |
| 2026-05-08 15:20 | 44.29000 | -109.33200 | 37131 ft | 429 kts | 31° |
| 2026-05-08 15:20 | 44.33669 | -109.28041 | 37140 ft | 428 kts | 31° |
| 2026-05-08 15:21 | 44.38330 | -109.22885 | 37139 ft | 427 kts | 31° |
| 2026-05-08 15:21 | 44.42987 | -109.17723 | 37141 ft | 426 kts | 31° |
| 2026-05-08 15:22 | 44.47634 | -109.12564 | 37145 ft | 426 kts | 31° |
| 2026-05-08 15:22 | 44.52269 | -109.07409 | 37145 ft | 424 kts | 31° |
| 2026-05-08 15:23 | 44.56880 | -109.02266 | 37148 ft | 423 kts | 31° |
| 2026-05-08 15:23 | 44.61476 | -108.97078 | 37140 ft | 426 kts | 34° |
| 2026-05-08 15:24 | 44.65516 | -108.90908 | 37129 ft | 434 kts | 41° |
| 2026-05-08 15:24 | 44.69458 | -108.84484 | 37105 ft | 434 kts | 41° |
| 2026-05-08 15:25 | 44.73396 | -108.78038 | 37106 ft | 434 kts | 41° |
| 2026-05-08 15:25 | 44.77343 | -108.71596 | 37093 ft | 434 kts | 41° |
| 2026-05-08 15:26 | 44.81284 | -108.65142 | 37097 ft | 435 kts | 41° |
| 2026-05-08 15:26 | 44.85228 | -108.58681 | 37092 ft | 435 kts | 41° |
| 2026-05-08 15:27 | 44.89169 | -108.52202 | 37101 ft | 435 kts | 41° |
| 2026-05-08 15:27 | 44.93104 | -108.45699 | 37093 ft | 436 kts | 41° |
| 2026-05-08 15:28 | 44.97044 | -108.39194 | 37093 ft | 436 kts | 41° |
| 2026-05-08 15:28 | 45.00985 | -108.32669 | 37073 ft | 436 kts | 41° |
| 2026-05-08 15:29 | 45.04920 | -108.26132 | 37109 ft | 436 kts | 41° |
| 2026-05-08 15:29 | 45.08854 | -108.19590 | 37091 ft | 436 kts | 41° |
| 2026-05-08 15:30 | 45.12786 | -108.13036 | 37082 ft | 436 kts | 41° |
| 2026-05-08 15:30 | 45.16681 | -108.06522 | 37063 ft | 437 kts | 41° |
| 2026-05-08 15:31 | 45.20605 | -107.99944 | 37058 ft | 437 kts | 41° |
| 2026-05-08 15:31 | 45.24507 | -107.93389 | 37043 ft | 433 kts | 41° |
| 2026-05-08 15:32 | 45.28391 | -107.86853 | 37029 ft | 433 kts | 41° |
| 2026-05-08 15:32 | 45.32281 | -107.80301 | 37025 ft | 433 kts | 41° |
| 2026-05-08 15:33 | 45.36161 | -107.73736 | 37022 ft | 434 kts | 41° |
| 2026-05-08 15:33 | 45.40035 | -107.67159 | 37056 ft | 434 kts | 41° |
| 2026-05-08 15:34 | 45.43907 | -107.60587 | 37044 ft | 433 kts | 40° |
| 2026-05-08 15:34 | 45.47775 | -107.54012 | 37039 ft | 433 kts | 41° |
| 2026-05-08 15:35 | 45.51627 | -107.47433 | 37040 ft | 433 kts | 41° |
| 2026-05-08 15:35 | 45.55480 | -107.40839 | 37031 ft | 432 kts | 41° |
| 2026-05-08 15:36 | 45.58668 | -107.35364 | 37037 ft | 431 kts | 40° |
| 2026-05-08 15:36 | 45.63145 | -107.27668 | 37028 ft | 431 kts | 40° |
| 2026-05-08 15:37 | 45.66972 | -107.21085 | 37035 ft | 431 kts | 40° |
| 2026-05-08 15:37 | 45.70803 | -107.14483 | 37025 ft | 431 kts | 40° |
| 2026-05-08 15:38 | 45.74595 | -107.07909 | 37033 ft | 431 kts | 40° |
| 2026-05-08 15:38 | 45.78403 | -107.01280 | 37019 ft | 430 kts | 40° |
| 2026-05-08 15:39 | 45.82207 | -106.94663 | 37015 ft | 430 kts | 40° |
| 2026-05-08 15:39 | 45.86017 | -106.88033 | 37005 ft | 431 kts | 40° |
| 2026-05-08 15:40 | 45.89823 | -106.81383 | 37006 ft | 431 kts | 40° |
| 2026-05-08 15:40 | 45.93613 | -106.74733 | 37016 ft | 429 kts | 40° |
| 2026-05-08 15:41 | 45.97389 | -106.68090 | 37016 ft | 429 kts | 40° |
| 2026-05-08 15:41 | 46.01163 | -106.61442 | 36998 ft | 429 kts | 40° |
| 2026-05-08 15:42 | 46.04941 | -106.54787 | 36994 ft | 429 kts | 40° |
| 2026-05-08 15:42 | 46.08693 | -106.48167 | 37033 ft | 429 kts | 40° |
| 2026-05-08 15:43 | 46.12453 | -106.41501 | 36996 ft | 428 kts | 40° |
| 2026-05-08 15:43 | 46.16201 | -106.34818 | 36992 ft | 429 kts | 40° |
| 2026-05-08 15:44 | 46.19950 | -106.28132 | 36995 ft | 428 kts | 40° |
| 2026-05-08 15:44 | 46.23703 | -106.21444 | 37006 ft | 429 kts | 40° |
| 2026-05-08 15:45 | 46.27448 | -106.14742 | 36989 ft | 428 kts | 40° |
| 2026-05-08 15:45 | 46.31172 | -106.08049 | 36977 ft | 427 kts | 40° |
| 2026-05-08 15:46 | 46.34893 | -106.01354 | 36968 ft | 427 kts | 40° |
| 2026-05-08 15:46 | 46.38570 | -105.94567 | 36976 ft | 434 kts | 45° |
| 2026-05-08 15:47 | 46.41829 | -105.87130 | 37002 ft | 437 kts | 46° |
| 2026-05-08 15:47 | 46.45075 | -105.79664 | 37007 ft | 438 kts | 46° |
| 2026-05-08 15:48 | 46.49950 | -105.68457 | 37004 ft | 438 kts | 46° |
| 2026-05-08 15:49 | 46.53169 | -105.61022 | 36998 ft | 438 kts | 47° |
| 2026-05-08 15:49 | 46.56406 | -105.53518 | 36977 ft | 438 kts | 47° |
| 2026-05-08 15:50 | 46.59640 | -105.46009 | 36978 ft | 437 kts | 46° |
| 2026-05-08 15:50 | 46.62858 | -105.38507 | 36969 ft | 437 kts | 47° |
| 2026-05-08 15:51 | 46.66071 | -105.30988 | 36969 ft | 438 kts | 47° |
| 2026-05-08 15:51 | 46.69290 | -105.23463 | 36970 ft | 438 kts | 47° |
| 2026-05-08 15:52 | 46.72507 | -105.15929 | 36987 ft | 438 kts | 47° |
| 2026-05-08 15:52 | 46.75698 | -105.08405 | 36964 ft | 436 kts | 47° |
| 2026-05-08 15:53 | 46.78888 | -105.00875 | 36967 ft | 436 kts | 47° |
| 2026-05-08 15:53 | 46.82077 | -104.93339 | 36969 ft | 436 kts | 47° |
| 2026-05-08 15:54 | 46.85264 | -104.85778 | 36974 ft | 437 kts | 47° |
| 2026-05-08 15:54 | 46.87904 | -104.79481 | 36983 ft | 436 kts | 47° |
| 2026-05-08 15:55 | 46.91587 | -104.70697 | 36964 ft | 436 kts | 47° |
| 2026-05-08 15:55 | 46.96336 | -104.59320 | 36973 ft | 437 kts | 47° |
| 2026-05-08 15:56 | 46.99500 | -104.51720 | 36972 ft | 437 kts | 47° |
| 2026-05-08 15:56 | 47.02129 | -104.45393 | 36992 ft | 437 kts | 47° |
| 2026-05-08 15:57 | 47.05284 | -104.37777 | 36986 ft | 437 kts | 47° |
| 2026-05-08 15:57 | 47.08434 | -104.30158 | 36984 ft | 437 kts | 47° |
| 2026-05-08 15:58 | 47.11578 | -104.22519 | 36976 ft | 437 kts | 47° |
| 2026-05-08 15:58 | 47.14714 | -104.14861 | 36983 ft | 438 kts | 47° |
| 2026-05-08 15:59 | 47.17842 | -104.07208 | 36956 ft | 436 kts | 48° |
| 2026-05-08 15:59 | 47.20965 | -103.99576 | 36944 ft | 436 kts | 48° |
| 2026-05-08 16:00 | 47.24090 | -103.91920 | 36944 ft | 437 kts | 48° |
| 2026-05-08 16:00 | 47.27211 | -103.84235 | 36942 ft | 437 kts | 48° |
| 2026-05-08 16:01 | 47.30301 | -103.76587 | 36990 ft | 438 kts | 48° |
| 2026-05-08 16:01 | 47.33415 | -103.68868 | 36967 ft | 438 kts | 48° |
| 2026-05-08 16:02 | 47.36535 | -103.61146 | 36958 ft | 438 kts | 48° |
| 2026-05-08 16:02 | 47.39642 | -103.53395 | 36945 ft | 439 kts | 48° |
| 2026-05-08 16:03 | 47.42743 | -103.45633 | 36942 ft | 439 kts | 49° |
| 2026-05-08 16:03 | 47.45848 | -103.37851 | 36926 ft | 440 kts | 49° |
| 2026-05-08 16:04 | 47.48956 | -103.30048 | 36918 ft | 441 kts | 49° |
| 2026-05-08 16:04 | 47.52062 | -103.22217 | 36907 ft | 442 kts | 49° |
| 2026-05-08 16:05 | 47.55164 | -103.14360 | 36901 ft | 442 kts | 49° |
| 2026-05-08 16:05 | 47.58270 | -103.06495 | 36956 ft | 443 kts | 49° |
| 2026-05-08 16:06 | 47.61380 | -102.98607 | 36921 ft | 444 kts | 50° |
| 2026-05-08 16:06 | 47.64487 | -102.90686 | 36908 ft | 445 kts | 50° |
| 2026-05-08 16:07 | 47.67589 | -102.82743 | 36897 ft | 445 kts | 50° |
| 2026-05-08 16:07 | 47.70688 | -102.74793 | 36896 ft | 445 kts | 50° |
| 2026-05-08 16:08 | 47.73769 | -102.66873 | 36904 ft | 446 kts | 51° |
| 2026-05-08 16:08 | 47.76867 | -102.58880 | 36895 ft | 446 kts | 51° |
| 2026-05-08 16:09 | 47.79964 | -102.50881 | 36896 ft | 446 kts | 51° |
| 2026-05-08 16:09 | 47.83051 | -102.42864 | 36894 ft | 447 kts | 51° |
| 2026-05-08 16:10 | 47.86134 | -102.34830 | 36885 ft | 447 kts | 51° |
| 2026-05-08 16:10 | 47.89216 | -102.26786 | 36886 ft | 447 kts | 51° |
| 2026-05-08 16:11 | 47.92295 | -102.18722 | 36879 ft | 447 kts | 51° |
| 2026-05-08 16:11 | 47.95372 | -102.10646 | 36874 ft | 447 kts | 51° |
| 2026-05-08 16:12 | 47.98440 | -102.02560 | 36870 ft | 448 kts | 51° |
| 2026-05-08 16:12 | 48.01502 | -101.94471 | 36890 ft | 448 kts | 52° |
| 2026-05-08 16:13 | 48.04563 | -101.86355 | 36883 ft | 449 kts | 52° |
| 2026-05-08 16:13 | 48.07622 | -101.78218 | 36876 ft | 449 kts | 52° |
| 2026-05-08 16:14 | 48.10655 | -101.70120 | 36868 ft | 449 kts | 52° |
| 2026-05-08 16:14 | 48.13707 | -101.61949 | 36868 ft | 450 kts | 52° |
| 2026-05-08 16:15 | 48.16757 | -101.53766 | 36889 ft | 451 kts | 53° |
| 2026-05-08 16:15 | 48.19809 | -101.45556 | 36881 ft | 451 kts | 53° |
| 2026-05-08 16:16 | 48.22862 | -101.37334 | 36879 ft | 452 kts | 53° |
| 2026-05-08 16:16 | 48.25901 | -101.29081 | 36875 ft | 452 kts | 53° |
| 2026-05-08 16:17 | 48.28440 | -101.22232 | 36859 ft | 452 kts | 52° |
| 2026-05-08 16:17 | 48.32055 | -101.12612 | 36896 ft | 453 kts | 53° |
| 2026-05-08 16:18 | 48.35151 | -101.04360 | 36878 ft | 454 kts | 53° |
| 2026-05-08 16:18 | 48.38234 | -100.96081 | 36875 ft | 454 kts | 53° |
| 2026-05-08 16:19 | 48.41307 | -100.87765 | 36875 ft | 455 kts | 53° |
| 2026-05-08 16:19 | 48.44358 | -100.79487 | 36901 ft | 455 kts | 53° |
| 2026-05-08 16:20 | 48.47433 | -100.71137 | 36881 ft | 456 kts | 53° |
| 2026-05-08 16:20 | 48.50515 | -100.62765 | 36875 ft | 457 kts | 53° |
| 2026-05-08 16:21 | 48.53611 | -100.54320 | 36870 ft | 457 kts | 54° |
| 2026-05-08 16:21 | 48.56659 | -100.45961 | 36871 ft | 458 kts | 54° |
| 2026-05-08 16:22 | 48.59586 | -100.37896 | 36891 ft | 459 kts | 54° |
| 2026-05-08 16:22 | 48.62652 | -100.29425 | 36888 ft | 459 kts | 54° |
| 2026-05-08 16:23 | 48.65718 | -100.20944 | 36875 ft | 460 kts | 54° |
| 2026-05-08 16:23 | 48.68780 | -100.12452 | 36866 ft | 460 kts | 54° |
| 2026-05-08 16:24 | 48.71833 | -100.03929 | 36894 ft | 460 kts | 55° |
| 2026-05-08 16:24 | 48.74887 | -99.95395 | 36853 ft | 461 kts | 55° |
| 2026-05-08 16:25 | 48.77939 | -99.86843 | 36862 ft | 461 kts | 55° |
| 2026-05-08 16:25 | 48.80987 | -99.78276 | 36861 ft | 462 kts | 55° |
| 2026-05-08 16:26 | 48.84026 | -99.69684 | 36857 ft | 462 kts | 55° |
| 2026-05-08 16:26 | 48.87058 | -99.61077 | 36879 ft | 462 kts | 56° |
| 2026-05-08 16:27 | 48.90093 | -99.52463 | 36861 ft | 463 kts | 56° |
| 2026-05-08 16:27 | 48.93123 | -99.43827 | 36872 ft | 463 kts | 56° |
| 2026-05-08 16:28 | 48.96141 | -99.35179 | 36866 ft | 463 kts | 56° |
| 2026-05-08 16:28 | 48.99143 | -99.26570 | 36856 ft | 463 kts | 56° |
| 2026-05-08 16:29 | 49.02156 | -99.17896 | 36867 ft | 464 kts | 56° |
| 2026-05-08 16:29 | 49.03663 | -99.13548 | 36686 ft | 464 kts | 56° |
| 2026-05-08 16:29 | 49.05164 | -99.09200 | 36327 ft | 463 kts | 56° |
| 2026-05-08 16:30 | 49.06668 | -99.04850 | 35478 ft | 464 kts | 55° |
| 2026-05-08 16:30 | 49.08396 | -99.00731 | 34648 ft | 458 kts | 46° |
| 2026-05-08 16:30 | 49.10468 | -98.97092 | 33787 ft | 451 kts | 38° |
| 2026-05-08 16:30 | 49.12776 | -98.93876 | 32845 ft | 448 kts | 36° |
| 2026-05-08 16:31 | 49.15090 | -98.90700 | 31926 ft | 447 kts | 36° |
| 2026-05-08 16:31 | 49.17401 | -98.87515 | 30960 ft | 447 kts | 36° |
| 2026-05-08 16:31 | 49.19708 | -98.84322 | 30019 ft | 448 kts | 36° |
| 2026-05-08 16:31 | 49.22020 | -98.81112 | 28856 ft | 449 kts | 36° |
| 2026-05-08 16:32 | 49.24333 | -98.77893 | 27755 ft | 449 kts | 36° |
| 2026-05-08 16:32 | 49.26642 | -98.74681 | 26659 ft | 449 kts | 36° |
| 2026-05-08 16:32 | 49.28957 | -98.71460 | 25467 ft | 451 kts | 37° |
| 2026-05-08 16:32 | 49.31284 | -98.68221 | 24279 ft | 453 kts | 37° |
| 2026-05-08 16:33 | 49.33586 | -98.65012 | 23127 ft | 454 kts | 37° |
| 2026-05-08 16:33 | 49.35941 | -98.61716 | 22190 ft | 448 kts | 37° |
| 2026-05-08 16:33 | 49.38195 | -98.58554 | 21380 ft | 442 kts | 37° |
| 2026-05-08 16:33 | 49.40444 | -98.55397 | 20568 ft | 436 kts | 37° |
| 2026-05-08 16:34 | 49.42672 | -98.52270 | 19782 ft | 431 kts | 37° |
| 2026-05-08 16:34 | 49.44876 | -98.49178 | 18994 ft | 427 kts | 37° |
| 2026-05-08 16:34 | 49.47063 | -98.46109 | 18233 ft | 424 kts | 36° |
| 2026-05-08 16:34 | 49.49235 | -98.43058 | 17342 ft | 422 kts | 37° |
| 2026-05-08 16:35 | 49.51369 | -98.40048 | 16931 ft | 409 kts | 37° |
| 2026-05-08 16:35 | 49.53440 | -98.37114 | 16237 ft | 405 kts | 37° |
| 2026-05-08 16:35 | 49.55503 | -98.34193 | 15567 ft | 401 kts | 37° |
| 2026-05-08 16:35 | 49.57545 | -98.31304 | 14917 ft | 397 kts | 37° |
| 2026-05-08 16:36 | 49.59569 | -98.28441 | 14290 ft | 394 kts | 37° |
| 2026-05-08 16:36 | 49.61575 | -98.25599 | 13680 ft | 390 kts | 37° |
| 2026-05-08 16:36 | 49.63560 | -98.22785 | 13025 ft | 386 kts | 37° |
| 2026-05-08 16:36 | 49.65518 | -98.20000 | 12430 ft | 379 kts | 37° |
| 2026-05-08 16:37 | 49.67443 | -98.17258 | 11843 ft | 374 kts | 37° |
| 2026-05-08 16:37 | 49.69337 | -98.14564 | 11305 ft | 367 kts | 37° |
| 2026-05-08 16:37 | 49.71166 | -98.11953 | 11186 ft | 349 kts | 37° |
| 2026-05-08 16:37 | 49.72906 | -98.09456 | 11058 ft | 334 kts | 37° |
| 2026-05-08 16:38 | 49.74567 | -98.07068 | 10929 ft | 319 kts | 37° |
| 2026-05-08 16:38 | 49.76160 | -98.04781 | 10804 ft | 306 kts | 37° |
| 2026-05-08 16:38 | 49.77679 | -98.02564 | 10677 ft | 296 kts | 40° |
| 2026-05-08 16:38 | 49.78922 | -98.00037 | 10461 ft | 296 kts | 54° |
| 2026-05-08 16:39 | 49.79752 | -97.97115 | 10385 ft | 300 kts | 67° |
| 2026-05-08 16:39 | 49.80144 | -97.93913 | 10289 ft | 307 kts | 81° |
| 2026-05-08 16:39 | 49.80076 | -97.90590 | 10165 ft | 310 kts | 90° |
| 2026-05-08 16:39 | 49.79907 | -97.87313 | 10021 ft | 310 kts | 90° |
| 2026-05-08 16:40 | 49.79738 | -97.83960 | 9504 ft | 315 kts | 90° |
| 2026-05-08 16:40 | 49.79573 | -97.80620 | 9197 ft | 309 kts | 90° |
| 2026-05-08 16:40 | 49.79410 | -97.77339 | 8536 ft | 304 kts | 90° |
| 2026-05-08 16:40 | 49.79249 | -97.74097 | 7926 ft | 302 kts | 90° |
| 2026-05-08 16:41 | 49.79088 | -97.70884 | 7582 ft | 297 kts | 91° |
| 2026-05-08 16:41 | 49.78928 | -97.67722 | 7076 ft | 292 kts | 91° |
| 2026-05-08 16:41 | 49.78768 | -97.64606 | 6442 ft | 288 kts | 91° |
| 2026-05-08 16:42 | 49.78455 | -97.58626 | 6000 ft | 267 kts | 91° |
| 2026-05-08 16:42 | 49.78280 | -97.55827 | 5951 ft | 255 kts | 96° |
| 2026-05-08 16:42 | 49.77893 | -97.53089 | 5747 ft | 261 kts | 100° |
| 2026-05-08 16:42 | 49.77475 | -97.50368 | 5475 ft | 259 kts | 101° |
| 2026-05-08 16:43 | 49.77055 | -97.47678 | 5195 ft | 256 kts | 101° |
| 2026-05-08 16:43 | 49.76639 | -97.45030 | 5018 ft | 248 kts | 102° |
| 2026-05-08 16:43 | 49.75907 | -97.42703 | 4916 ft | 238 kts | 130° |
| 2026-05-08 16:43 | 49.74584 | -97.41245 | 4766 ft | 236 kts | 161° |
| 2026-05-08 16:44 | 49.72989 | -97.40967 | 4492 ft | 232 kts | 188° |
| 2026-05-08 16:44 | 49.71385 | -97.41149 | 4287 ft | 230 kts | 171° |
| 2026-05-08 16:44 | 49.69931 | -97.40169 | 4255 ft | 231 kts | 136° |
| 2026-05-08 16:44 | 49.69065 | -97.38149 | 4262 ft | 226 kts | 102° |
| 2026-05-08 16:45 | 49.69059 | -97.35800 | 4267 ft | 218 kts | 70° |
| 2026-05-08 16:45 | 49.69375 | -97.34338 | 4426 ft | 218 kts | 65° |
| 2026-05-08 16:45 | 49.69961 | -97.32172 | 4438 ft | 218 kts | 58° |
| 2026-05-08 16:45 | 49.70831 | -97.30335 | 4435 ft | 205 kts | 45° |
| 2026-05-08 16:46 | 49.71809 | -97.28842 | 4332 ft | 193 kts | 31° |
| 2026-05-08 16:46 | 49.73426 | -97.27893 | 4055 ft | 184 kts | 6° |
| 2026-05-08 16:46 | 49.74267 | -97.27704 | 3891 ft | 185 kts | 7° |
| 2026-05-08 16:46 | 49.75533 | -97.27414 | 3664 ft | 182 kts | 6° |
| 2026-05-08 16:47 | 49.76765 | -97.27130 | 3400 ft | 177 kts | 6° |
| 2026-05-08 16:47 | 49.77955 | -97.26856 | 3147 ft | 167 kts | 6° |
| 2026-05-08 16:47 | 49.79051 | -97.26603 | 2933 ft | 152 kts | 6° |
| 2026-05-08 16:47 | 49.80065 | -97.26369 | 2737 ft | 143 kts | 6° |
| 2026-05-08 16:48 | 49.81048 | -97.26143 | 2538 ft | 141 kts | 6° |
| 2026-05-08 16:48 | 49.82016 | -97.25920 | 2348 ft | 142 kts | 6° |
| 2026-05-08 16:48 | 49.82989 | -97.25696 | 2172 ft | 140 kts | 8° |
| 2026-05-08 16:48 | 49.83950 | -97.25474 | 1976 ft | 138 kts | 7° |
| 2026-05-08 16:49 | 49.84907 | -97.25253 | 1783 ft | 138 kts | 6° |
| 2026-05-08 16:49 | 49.85868 | -97.25040 | 1619 ft | 140 kts | 6° |
| 2026-05-08 16:49 | 49.86837 | -97.24819 | 1403 ft | 140 kts | 7° |
| 2026-05-08 16:49 | 49.87803 | -97.24592 | 1217 ft | 139 kts | 7° |
| 2026-05-08 16:50 | 49.88755 | -97.24366 | 1024 ft | 140 kts | 8° |
| 2026-05-08 16:50 | 49.89715 | -97.24145 | 812 ft | 138 kts | 8° |
| 2026-05-08 16:50 | 49.90572 | -97.23945 | 786 ft | 104 kts | 8° |
| 2026-05-08 16:50 | 49.91112 | -97.23820 | 782 ft | 50 kts | 8° |
| 2026-05-08 16:51 | 49.91340 | -97.23763 | 780 ft | 24 kts | 18° |
| 2026-05-08 16:51 | 49.91451 | -97.23647 | 783 ft | 16 kts | 38° |
| 2026-05-08 16:51 | 49.91534 | -97.23544 | 782 ft | 9 kts | 39° |
| 2026-05-08 16:51 | 49.91566 | -97.23459 | 783 ft | 9 kts | 92° |
| 2026-05-08 16:52 | 49.91537 | -97.23409 | 785 ft | 4 kts | 167° |
| 2026-05-08 16:52 | 49.91512 | -97.23411 | 785 ft | 3 kts | 185° |
| 2026-05-08 16:52 | 49.91496 | -97.23414 | 786 ft | 3 kts | 188° |
| 2026-05-08 16:52 | 49.91440 | -97.23426 | 786 ft | 13 kts | 188° |
| 2026-05-08 16:53 | 49.91238 | -97.23473 | 785 ft | 14 kts | 188° |
| 2026-05-08 16:53 | 49.91121 | -97.23500 | 784 ft | 19 kts | 188° |
| 2026-05-08 16:53 | 49.91007 | -97.23458 | 782 ft | 15 kts | 154° |
| 2026-05-08 16:54 | 49.90915 | -97.23391 | 782 ft | 15 kts | 154° |
| 2026-05-08 16:54 | 49.90868 | -97.23275 | 782 ft | 13 kts | 83° |
| 2026-05-08 16:54 | 49.90879 | -97.23122 | 782 ft | 15 kts | 83° |
| 2026-05-08 16:54 | 49.90888 | -97.22950 | 783 ft | 17 kts | 87° |
| 2026-05-08 16:55 | 49.90855 | -97.22785 | 784 ft | 16 kts | 126° |
| 2026-05-08 16:55 | 49.90792 | -97.22651 | 783 ft | 15 kts | 126° |
| 2026-05-08 16:55 | 49.90763 | -97.22528 | 782 ft | 8 kts | 87° |
| 2026-05-08 16:55 | 49.90765 | -97.22430 | 783 ft | 12 kts | 89° |
| 2026-05-08 16:56 | 49.90749 | -97.22338 | 783 ft | 7 kts | 156° |
| 2026-05-08 16:56 | 49.90708 | -97.22336 | 784 ft | 5 kts | 183° |
| 2026-05-08 16:56 | 49.90684 | -97.22338 | 784 ft | 2 kts | 184° |
| 2026-05-08 16:56 | 49.90683 | -97.22338 | 784 ft | 0 kts | 184° |